sensor_id;sensor_type;location;lat;lon;timestamp;P1;durP1;ratioP1;P2;durP2;ratioP2
15889;SDS011;8043;49.388;12.128;2022-12-07T00:02:20;4.00;;;2.13;;
15889;SDS011;8043;49.388;12.128;2022-12-07T00:07:23;5.77;;;2.13;;
15889;SDS011;8043;49.388;12.128;2022-12-07T00:12:25;5.43;;;2.63;;
15889;SDS011;8043;49.388;12.128;2022-12-07T00:17:27;6.13;;;2.67;;
15889;SDS011;8043;49.388;12.128;2022-12-07T00:22:30;4.43;;;2.60;;
15889;SDS011;8043;49.388;12.128;2022-12-07T00:27:33;5.57;;;1.90;;
15889;SDS011;8043;49.388;12.128;2022-12-07T00:32:35;4.00;;;2.77;;
15889;SDS011;8043;49.388;12.128;2022-12-07T00:37:37;2.70;;;2.17;;
15889;SDS011;8043;49.388;12.128;2022-12-07T00:42:40;3.93;;;2.23;;
15889;SDS011;8043;49.388;12.128;2022-12-07T00:47:42;4.00;;;2.53;;
15889;SDS011;8043;49.388;12.128;2022-12-07T00:52:44;3.97;;;2.30;;
15889;SDS011;8043;49.388;12.128;2022-12-07T00:57:46;4.60;;;2.27;;
15889;SDS011;8043;49.388;12.128;2022-12-07T01:02:48;5.53;;;2.80;;
15889;SDS011;8043;49.388;12.128;2022-12-07T01:07:51;4.17;;;2.67;;
15889;SDS011;8043;49.388;12.128;2022-12-07T01:12:53;5.10;;;2.67;;
15889;SDS011;8043;49.388;12.128;2022-12-07T01:17:55;4.17;;;2.33;;
15889;SDS011;8043;49.388;12.128;2022-12-07T01:22:59;5.23;;;2.67;;
15889;SDS011;8043;49.388;12.128;2022-12-07T01:28:01;4.70;;;2.20;;
15889;SDS011;8043;49.388;12.128;2022-12-07T01:33:03;4.10;;;2.43;;
15889;SDS011;8043;49.388;12.128;2022-12-07T01:38:05;5.57;;;2.83;;
15889;SDS011;8043;49.388;12.128;2022-12-07T01:43:17;4.13;;;2.43;;
15889;SDS011;8043;49.388;12.128;2022-12-07T01:48:22;4.30;;;2.17;;
15889;SDS011;8043;49.388;12.128;2022-12-07T01:53:26;4.50;;;2.60;;
15889;SDS011;8043;49.388;12.128;2022-12-07T01:58:30;5.83;;;3.10;;
15889;SDS011;8043;49.388;12.128;2022-12-07T02:03:38;7.13;;;2.97;;
15889;SDS011;8043;49.388;12.128;2022-12-07T02:08:38;6.87;;;2.73;;
15889;SDS011;8043;49.388;12.128;2022-12-07T02:13:42;5.53;;;3.17;;
15889;SDS011;8043;49.388;12.128;2022-12-07T02:40:18;5.08;;;2.62;;
15889;SDS011;8043;49.388;12.128;2022-12-07T02:45:25;4.27;;;2.67;;
15889;SDS011;8043;49.388;12.128;2022-12-07T02:50:29;4.20;;;2.47;;
15889;SDS011;8043;49.388;12.128;2022-12-07T02:55:34;4.37;;;2.83;;
15889;SDS011;8043;49.388;12.128;2022-12-07T03:00:44;6.35;;;2.92;;
15889;SDS011;8043;49.388;12.128;2022-12-07T03:11:16;6.73;;;2.93;;
15889;SDS011;8043;49.388;12.128;2022-12-07T03:21:36;4.27;;;2.90;;
15889;SDS011;8043;49.388;12.128;2022-12-07T03:26:41;5.77;;;2.60;;
15889;SDS011;8043;49.388;12.128;2022-12-07T03:31:45;9.77;;;5.23;;
15889;SDS011;8043;49.388;12.128;2022-12-07T03:36:57;6.60;;;3.27;;
15889;SDS011;8043;49.388;12.128;2022-12-07T03:42:00;3.37;;;2.17;;
15889;SDS011;8043;49.388;12.128;2022-12-07T03:57:34;5.17;;;3.00;;
15889;SDS011;8043;49.388;12.128;2022-12-07T04:02:37;4.67;;;2.57;;
15889;SDS011;8043;49.388;12.128;2022-12-07T04:07:39;6.80;;;3.63;;
15889;SDS011;8043;49.388;12.128;2022-12-07T04:12:42;7.03;;;3.77;;
15889;SDS011;8043;49.388;12.128;2022-12-07T04:17:44;5.37;;;2.87;;
15889;SDS011;8043;49.388;12.128;2022-12-07T04:22:46;4.33;;;2.93;;
15889;SDS011;8043;49.388;12.128;2022-12-07T04:27:48;4.30;;;2.80;;
15889;SDS011;8043;49.388;12.128;2022-12-07T04:32:50;6.40;;;3.77;;
15889;SDS011;8043;49.388;12.128;2022-12-07T04:37:53;4.23;;;2.80;;
15889;SDS011;8043;49.388;12.128;2022-12-07T04:42:55;5.80;;;3.63;;
15889;SDS011;8043;49.388;12.128;2022-12-07T04:47:57;4.30;;;2.53;;
15889;SDS011;8043;49.388;12.128;2022-12-07T04:52:59;7.07;;;3.63;;
15889;SDS011;8043;49.388;12.128;2022-12-07T04:58:02;5.63;;;3.77;;
15889;SDS011;8043;49.388;12.128;2022-12-07T05:03:04;4.57;;;3.03;;
15889;SDS011;8043;49.388;12.128;2022-12-07T05:08:06;5.33;;;2.57;;
15889;SDS011;8043;49.388;12.128;2022-12-07T05:13:08;4.67;;;2.87;;
15889;SDS011;8043;49.388;12.128;2022-12-07T05:18:16;6.63;;;3.57;;
15889;SDS011;8043;49.388;12.128;2022-12-07T05:23:15;5.60;;;4.13;;
15889;SDS011;8043;49.388;12.128;2022-12-07T05:28:17;6.67;;;3.63;;
15889;SDS011;8043;49.388;12.128;2022-12-07T05:33:19;5.43;;;2.87;;
15889;SDS011;8043;49.388;12.128;2022-12-07T05:38:21;5.60;;;3.50;;
15889;SDS011;8043;49.388;12.128;2022-12-07T05:43:23;6.10;;;3.47;;
15889;SDS011;8043;49.388;12.128;2022-12-07T05:48:25;8.83;;;4.27;;
15889;SDS011;8043;49.388;12.128;2022-12-07T05:53:28;8.77;;;4.30;;
15889;SDS011;8043;49.388;12.128;2022-12-07T05:58:30;6.43;;;3.70;;
15889;SDS011;8043;49.388;12.128;2022-12-07T06:03:50;4.93;;;3.10;;
15889;SDS011;8043;49.388;12.128;2022-12-07T06:08:52;6.53;;;3.53;;
15889;SDS011;8043;49.388;12.128;2022-12-07T06:13:54;7.83;;;4.70;;
15889;SDS011;8043;49.388;12.128;2022-12-07T06:18:57;7.37;;;3.83;;
15889;SDS011;8043;49.388;12.128;2022-12-07T06:23:59;10.37;;;4.70;;
15889;SDS011;8043;49.388;12.128;2022-12-07T06:29:01;8.83;;;5.53;;
15889;SDS011;8043;49.388;12.128;2022-12-07T06:34:04;12.00;;;6.00;;
15889;SDS011;8043;49.388;12.128;2022-12-07T06:39:14;13.20;;;5.43;;
15889;SDS011;8043;49.388;12.128;2022-12-07T06:44:16;8.53;;;3.87;;
15889;SDS011;8043;49.388;12.128;2022-12-07T06:49:18;7.83;;;3.90;;
15889;SDS011;8043;49.388;12.128;2022-12-07T06:54:21;6.97;;;3.57;;
15889;SDS011;8043;49.388;12.128;2022-12-07T06:59:24;7.80;;;4.07;;
15889;SDS011;8043;49.388;12.128;2022-12-07T07:04:26;8.30;;;4.77;;
15889;SDS011;8043;49.388;12.128;2022-12-07T07:09:29;9.50;;;4.73;;
15889;SDS011;8043;49.388;12.128;2022-12-07T07:14:31;7.30;;;3.83;;
15889;SDS011;8043;49.388;12.128;2022-12-07T07:19:34;8.47;;;5.00;;
15889;SDS011;8043;49.388;12.128;2022-12-07T07:24:37;9.30;;;5.40;;
15889;SDS011;8043;49.388;12.128;2022-12-07T07:29:40;8.90;;;5.00;;
15889;SDS011;8043;49.388;12.128;2022-12-07T07:34:42;9.37;;;5.63;;
15889;SDS011;8043;49.388;12.128;2022-12-07T07:39:44;8.93;;;4.13;;
15889;SDS011;8043;49.388;12.128;2022-12-07T07:44:46;8.10;;;3.37;;
15889;SDS011;8043;49.388;12.128;2022-12-07T07:49:49;8.93;;;5.10;;
15889;SDS011;8043;49.388;12.128;2022-12-07T07:54:51;9.97;;;4.23;;
15889;SDS011;8043;49.388;12.128;2022-12-07T07:59:53;9.80;;;4.53;;
15889;SDS011;8043;49.388;12.128;2022-12-07T08:04:55;9.30;;;5.17;;
15889;SDS011;8043;49.388;12.128;2022-12-07T08:09:57;10.57;;;5.10;;
15889;SDS011;8043;49.388;12.128;2022-12-07T08:14:59;9.70;;;5.83;;
15889;SDS011;8043;49.388;12.128;2022-12-07T08:20:02;18.20;;;5.40;;
15889;SDS011;8043;49.388;12.128;2022-12-07T08:25:05;12.97;;;5.47;;
15889;SDS011;8043;49.388;12.128;2022-12-07T08:30:08;9.07;;;4.67;;
15889;SDS011;8043;49.388;12.128;2022-12-07T08:35:11;10.67;;;5.20;;
15889;SDS011;8043;49.388;12.128;2022-12-07T08:40:13;8.30;;;4.43;;
15889;SDS011;8043;49.388;12.128;2022-12-07T08:45:17;10.93;;;5.30;;
15889;SDS011;8043;49.388;12.128;2022-12-07T08:50:19;12.23;;;5.03;;
15889;SDS011;8043;49.388;12.128;2022-12-07T08:55:22;8.73;;;4.53;;
15889;SDS011;8043;49.388;12.128;2022-12-07T09:00:25;12.63;;;5.73;;
15889;SDS011;8043;49.388;12.128;2022-12-07T09:05:28;8.30;;;4.30;;
15889;SDS011;8043;49.388;12.128;2022-12-07T09:10:30;8.50;;;4.83;;
15889;SDS011;8043;49.388;12.128;2022-12-07T09:15:32;8.60;;;5.07;;
15889;SDS011;8043;49.388;12.128;2022-12-07T09:20:34;9.90;;;4.70;;
15889;SDS011;8043;49.388;12.128;2022-12-07T09:25:36;5.87;;;3.23;;
15889;SDS011;8043;49.388;12.128;2022-12-07T09:30:39;10.00;;;5.00;;
15889;SDS011;8043;49.388;12.128;2022-12-07T09:35:49;7.23;;;4.03;;
15889;SDS011;8043;49.388;12.128;2022-12-07T09:40:53;8.77;;;4.43;;
15889;SDS011;8043;49.388;12.128;2022-12-07T09:45:56;7.87;;;3.63;;
15889;SDS011;8043;49.388;12.128;2022-12-07T09:50:59;9.10;;;4.80;;
15889;SDS011;8043;49.388;12.128;2022-12-07T09:56:02;11.03;;;4.33;;
15889;SDS011;8043;49.388;12.128;2022-12-07T10:01:09;9.87;;;4.67;;
15889;SDS011;8043;49.388;12.128;2022-12-07T10:06:12;9.63;;;4.50;;
15889;SDS011;8043;49.388;12.128;2022-12-07T10:11:14;7.73;;;3.97;;
15889;SDS011;8043;49.388;12.128;2022-12-07T10:16:35;7.33;;;3.77;;
15889;SDS011;8043;49.388;12.128;2022-12-07T10:21:39;7.57;;;3.90;;
15889;SDS011;8043;49.388;12.128;2022-12-07T10:31:54;9.03;;;4.07;;
15889;SDS011;8043;49.388;12.128;2022-12-07T10:47:32;11.13;;;5.03;;
15889;SDS011;8043;49.388;12.128;2022-12-07T11:03:16;8.97;;;4.30;;
15889;SDS011;8043;49.388;12.128;2022-12-07T11:08:38;8.70;;;4.03;;
15889;SDS011;8043;49.388;12.128;2022-12-07T11:14:00;11.43;;;5.30;;
15889;SDS011;8043;49.388;12.128;2022-12-07T11:24:35;8.07;;;4.30;;
15889;SDS011;8043;49.388;12.128;2022-12-07T11:29:49;8.50;;;4.17;;
15889;SDS011;8043;49.388;12.128;2022-12-07T11:45:37;14.37;;;6.17;;
15889;SDS011;8043;49.388;12.128;2022-12-07T11:50:42;6.57;;;3.83;;
15889;SDS011;8043;49.388;12.128;2022-12-07T11:55:54;10.53;;;5.50;;
15889;SDS011;8043;49.388;12.128;2022-12-07T12:06:42;7.63;;;3.57;;
15889;SDS011;8043;49.388;12.128;2022-12-07T12:17:19;7.93;;;3.70;;
15889;SDS011;8043;49.388;12.128;2022-12-07T12:22:21;8.47;;;4.30;;
15889;SDS011;8043;49.388;12.128;2022-12-07T12:27:30;7.93;;;4.50;;
15889;SDS011;8043;49.388;12.128;2022-12-07T12:32:38;6.87;;;3.13;;
15889;SDS011;8043;49.388;12.128;2022-12-07T12:37:41;6.03;;;3.23;;
15889;SDS011;8043;49.388;12.128;2022-12-07T12:42:44;11.73;;;4.77;;
15889;SDS011;8043;49.388;12.128;2022-12-07T12:47:53;10.23;;;5.23;;
15889;SDS011;8043;49.388;12.128;2022-12-07T12:53:02;9.40;;;4.37;;
15889;SDS011;8043;49.388;12.128;2022-12-07T12:58:35;5.37;;;3.70;;
15889;SDS011;8043;49.388;12.128;2022-12-07T13:03:35;7.77;;;3.67;;
15889;SDS011;8043;49.388;12.128;2022-12-07T13:08:37;10.27;;;4.20;;
15889;SDS011;8043;49.388;12.128;2022-12-07T13:13:41;6.67;;;3.93;;
15889;SDS011;8043;49.388;12.128;2022-12-07T13:18:44;9.30;;;4.03;;
15889;SDS011;8043;49.388;12.128;2022-12-07T13:39:44;8.87;;;4.27;;
15889;SDS011;8043;49.388;12.128;2022-12-07T13:44:51;7.20;;;4.13;;
15889;SDS011;8043;49.388;12.128;2022-12-07T13:49:54;9.73;;;3.63;;
15889;SDS011;8043;49.388;12.128;2022-12-07T14:00:16;10.27;;;4.00;;
15889;SDS011;8043;49.388;12.128;2022-12-07T14:05:24;9.33;;;4.53;;
15889;SDS011;8043;49.388;12.128;2022-12-07T14:10:28;11.37;;;4.67;;
15889;SDS011;8043;49.388;12.128;2022-12-07T14:15:38;8.90;;;4.33;;
15889;SDS011;8043;49.388;12.128;2022-12-07T14:20:40;8.50;;;4.17;;
15889;SDS011;8043;49.388;12.128;2022-12-07T14:25:46;11.87;;;4.60;;
15889;SDS011;8043;49.388;12.128;2022-12-07T14:30:50;6.40;;;3.83;;
15889;SDS011;8043;49.388;12.128;2022-12-07T14:35:53;5.40;;;3.50;;
15889;SDS011;8043;49.388;12.128;2022-12-07T14:40:57;6.37;;;3.03;;
15889;SDS011;8043;49.388;12.128;2022-12-07T14:46:01;9.40;;;4.13;;
15889;SDS011;8043;49.388;12.128;2022-12-07T14:51:04;9.20;;;3.50;;
15889;SDS011;8043;49.388;12.128;2022-12-07T14:56:07;7.53;;;3.67;;
15889;SDS011;8043;49.388;12.128;2022-12-07T15:01:09;6.40;;;3.33;;
15889;SDS011;8043;49.388;12.128;2022-12-07T15:06:13;10.43;;;4.90;;
15889;SDS011;8043;49.388;12.128;2022-12-07T15:11:16;10.70;;;4.10;;
15889;SDS011;8043;49.388;12.128;2022-12-07T15:16:19;8.90;;;3.40;;
15889;SDS011;8043;49.388;12.128;2022-12-07T15:21:22;5.83;;;2.93;;
15889;SDS011;8043;49.388;12.128;2022-12-07T15:26:24;8.83;;;4.07;;
15889;SDS011;8043;49.388;12.128;2022-12-07T15:31:26;8.20;;;4.62;;
15889;SDS011;8043;49.388;12.128;2022-12-07T15:36:29;7.67;;;4.03;;
15889;SDS011;8043;49.388;12.128;2022-12-07T15:41:32;8.07;;;3.60;;
15889;SDS011;8043;49.388;12.128;2022-12-07T15:46:36;9.40;;;3.57;;
15889;SDS011;8043;49.388;12.128;2022-12-07T15:51:41;6.70;;;3.00;;
15889;SDS011;8043;49.388;12.128;2022-12-07T15:56:44;13.10;;;4.73;;
15889;SDS011;8043;49.388;12.128;2022-12-07T16:01:46;8.43;;;3.33;;
15889;SDS011;8043;49.388;12.128;2022-12-07T16:06:48;7.53;;;3.90;;
15889;SDS011;8043;49.388;12.128;2022-12-07T16:11:51;11.90;;;4.83;;
15889;SDS011;8043;49.388;12.128;2022-12-07T16:16:53;8.77;;;3.83;;
15889;SDS011;8043;49.388;12.128;2022-12-07T16:21:55;8.50;;;4.70;;
15889;SDS011;8043;49.388;12.128;2022-12-07T16:26:58;7.77;;;4.13;;
15889;SDS011;8043;49.388;12.128;2022-12-07T16:32:01;7.00;;;3.93;;
15889;SDS011;8043;49.388;12.128;2022-12-07T16:37:03;11.73;;;5.93;;
15889;SDS011;8043;49.388;12.128;2022-12-07T16:42:05;17.87;;;6.53;;
15889;SDS011;8043;49.388;12.128;2022-12-07T16:47:08;6.23;;;2.80;;
15889;SDS011;8043;49.388;12.128;2022-12-07T16:52:10;11.93;;;5.43;;
15889;SDS011;8043;49.388;12.128;2022-12-07T16:57:12;5.80;;;2.80;;
15889;SDS011;8043;49.388;12.128;2022-12-07T17:02:14;5.90;;;2.90;;
15889;SDS011;8043;49.388;12.128;2022-12-07T17:07:17;6.70;;;3.63;;
15889;SDS011;8043;49.388;12.128;2022-12-07T17:12:19;5.20;;;3.20;;
15889;SDS011;8043;49.388;12.128;2022-12-07T17:17:21;5.85;;;3.50;;
15889;SDS011;8043;49.388;12.128;2022-12-07T17:22:23;6.23;;;2.70;;
15889;SDS011;8043;49.388;12.128;2022-12-07T17:27:26;7.80;;;3.47;;
15889;SDS011;8043;49.388;12.128;2022-12-07T17:32:28;7.53;;;4.43;;
15889;SDS011;8043;49.388;12.128;2022-12-07T17:37:30;6.95;;;3.87;;
15889;SDS011;8043;49.388;12.128;2022-12-07T17:42:33;8.63;;;5.10;;
15889;SDS011;8043;49.388;12.128;2022-12-07T17:47:39;8.10;;;5.00;;
15889;SDS011;8043;49.388;12.128;2022-12-07T17:52:42;8.63;;;6.23;;
15889;SDS011;8043;49.388;12.128;2022-12-07T17:58:02;9.93;;;4.60;;
15889;SDS011;8043;49.388;12.128;2022-12-07T18:03:05;8.73;;;4.93;;
15889;SDS011;8043;49.388;12.128;2022-12-07T18:08:11;7.77;;;4.27;;
15889;SDS011;8043;49.388;12.128;2022-12-07T18:13:13;11.03;;;5.20;;
15889;SDS011;8043;49.388;12.128;2022-12-07T18:18:33;10.80;;;6.62;;
15889;SDS011;8043;49.388;12.128;2022-12-07T18:23:37;11.20;;;5.80;;
15889;SDS011;8043;49.388;12.128;2022-12-07T18:28:39;8.10;;;5.03;;
15889;SDS011;8043;49.388;12.128;2022-12-07T18:33:42;11.40;;;5.47;;
15889;SDS011;8043;49.388;12.128;2022-12-07T18:38:46;11.73;;;5.27;;
15889;SDS011;8043;49.388;12.128;2022-12-07T18:43:49;16.00;;;7.93;;
15889;SDS011;8043;49.388;12.128;2022-12-07T18:48:51;11.90;;;7.00;;
15889;SDS011;8043;49.388;12.128;2022-12-07T18:53:55;18.03;;;9.70;;
15889;SDS011;8043;49.388;12.128;2022-12-07T18:58:58;11.60;;;7.23;;
15889;SDS011;8043;49.388;12.128;2022-12-07T19:04:19;16.70;;;8.57;;
15889;SDS011;8043;49.388;12.128;2022-12-07T19:09:21;20.23;;;8.07;;
15889;SDS011;8043;49.388;12.128;2022-12-07T19:14:28;16.67;;;7.50;;
15889;SDS011;8043;49.388;12.128;2022-12-07T19:19:33;8.97;;;5.17;;
15889;SDS011;8043;49.388;12.128;2022-12-07T19:24:37;8.83;;;5.07;;
15889;SDS011;8043;49.388;12.128;2022-12-07T19:29:40;9.07;;;5.10;;
15889;SDS011;8043;49.388;12.128;2022-12-07T19:34:43;7.33;;;4.17;;
15889;SDS011;8043;49.388;12.128;2022-12-07T19:39:47;9.03;;;4.17;;
15889;SDS011;8043;49.388;12.128;2022-12-07T19:44:51;8.30;;;4.90;;
15889;SDS011;8043;49.388;12.128;2022-12-07T19:49:53;7.70;;;4.53;;
15889;SDS011;8043;49.388;12.128;2022-12-07T19:54:56;11.10;;;4.90;;
15889;SDS011;8043;49.388;12.128;2022-12-07T19:59:58;9.13;;;5.00;;
15889;SDS011;8043;49.388;12.128;2022-12-07T20:05:00;8.50;;;5.37;;
15889;SDS011;8043;49.388;12.128;2022-12-07T20:10:03;17.97;;;7.07;;
15889;SDS011;8043;49.388;12.128;2022-12-07T20:15:07;16.57;;;7.40;;
15889;SDS011;8043;49.388;12.128;2022-12-07T20:20:10;11.83;;;6.13;;
15889;SDS011;8043;49.388;12.128;2022-12-07T20:25:12;16.33;;;8.13;;
15889;SDS011;8043;49.388;12.128;2022-12-07T20:30:16;15.30;;;7.90;;
15889;SDS011;8043;49.388;12.128;2022-12-07T20:35:18;18.33;;;7.57;;
15889;SDS011;8043;49.388;12.128;2022-12-07T20:40:21;11.93;;;6.53;;
15889;SDS011;8043;49.388;12.128;2022-12-07T20:45:23;12.17;;;6.00;;
15889;SDS011;8043;49.388;12.128;2022-12-07T20:50:25;12.17;;;5.37;;
15889;SDS011;8043;49.388;12.128;2022-12-07T20:55:27;12.00;;;5.80;;
15889;SDS011;8043;49.388;12.128;2022-12-07T21:00:29;16.43;;;6.97;;
15889;SDS011;8043;49.388;12.128;2022-12-07T21:05:32;12.87;;;5.43;;
15889;SDS011;8043;49.388;12.128;2022-12-07T21:10:35;15.97;;;7.17;;
15889;SDS011;8043;49.388;12.128;2022-12-07T21:15:37;21.37;;;7.63;;
15889;SDS011;8043;49.388;12.128;2022-12-07T21:20:40;11.07;;;5.97;;
15889;SDS011;8043;49.388;12.128;2022-12-07T21:25:42;11.30;;;5.40;;
15889;SDS011;8043;49.388;12.128;2022-12-07T21:30:44;9.40;;;5.23;;
15889;SDS011;8043;49.388;12.128;2022-12-07T21:35:46;10.47;;;5.40;;
15889;SDS011;8043;49.388;12.128;2022-12-07T21:40:49;10.97;;;5.47;;
15889;SDS011;8043;49.388;12.128;2022-12-07T21:45:52;12.10;;;5.47;;
15889;SDS011;8043;49.388;12.128;2022-12-07T21:50:54;9.50;;;5.60;;
15889;SDS011;8043;49.388;12.128;2022-12-07T21:55:58;10.33;;;5.27;;
15889;SDS011;8043;49.388;12.128;2022-12-07T22:01:00;12.70;;;6.30;;
15889;SDS011;8043;49.388;12.128;2022-12-07T22:06:03;12.57;;;5.90;;
15889;SDS011;8043;49.388;12.128;2022-12-07T22:11:05;10.83;;;4.47;;
15889;SDS011;8043;49.388;12.128;2022-12-07T22:16:07;11.63;;;6.00;;
15889;SDS011;8043;49.388;12.128;2022-12-07T22:21:09;6.87;;;4.37;;
15889;SDS011;8043;49.388;12.128;2022-12-07T22:26:12;8.97;;;4.43;;
15889;SDS011;8043;49.388;12.128;2022-12-07T22:31:15;9.30;;;4.47;;
15889;SDS011;8043;49.388;12.128;2022-12-07T22:36:18;8.50;;;4.62;;
15889;SDS011;8043;49.388;12.128;2022-12-07T22:41:23;9.27;;;5.33;;
15889;SDS011;8043;49.388;12.128;2022-12-07T22:46:26;9.07;;;4.33;;
15889;SDS011;8043;49.388;12.128;2022-12-07T22:51:30;6.60;;;3.97;;
15889;SDS011;8043;49.388;12.128;2022-12-07T22:56:35;11.37;;;5.00;;
15889;SDS011;8043;49.388;12.128;2022-12-07T23:01:38;10.63;;;4.93;;
15889;SDS011;8043;49.388;12.128;2022-12-07T23:06:40;12.13;;;5.83;;
15889;SDS011;8043;49.388;12.128;2022-12-07T23:11:43;8.87;;;4.27;;
15889;SDS011;8043;49.388;12.128;2022-12-07T23:17:03;11.70;;;5.53;;
15889;SDS011;8043;49.388;12.128;2022-12-07T23:22:06;14.90;;;5.43;;
15889;SDS011;8043;49.388;12.128;2022-12-07T23:27:08;12.67;;;4.67;;
15889;SDS011;8043;49.388;12.128;2022-12-07T23:32:12;13.43;;;5.83;;
15889;SDS011;8043;49.388;12.128;2022-12-07T23:37:15;9.60;;;4.90;;
15889;SDS011;8043;49.388;12.128;2022-12-07T23:42:18;11.73;;;4.87;;
15889;SDS011;8043;49.388;12.128;2022-12-07T23:47:21;11.43;;;5.03;;
15889;SDS011;8043;49.388;12.128;2022-12-07T23:52:25;11.20;;;5.87;;
15889;SDS011;8043;49.388;12.128;2022-12-07T23:57:27;12.00;;;5.43;;
